Time;durP1;ratioP1;P1;durP2;ratioP2;P2;SDS_P1;SDS_P2;PMS_P1;PMS_P2;Temp;Humidity;BMP_temperature;BMP_pressure;BME280_temperature;BME280_humidity;BME280_pressure;Samples;Min_cycle;Max_cycle;Signal;HPM_P1;HPM_P2
2023/05/11 00:01:32;;;;;;;8.30;3.45;;;11.90;99.90;;;;;;5052246;28;20036;-65
2023/05/11 00:03:59;;;;;;;6.22;3.67;;;11.80;99.90;;;;;;5051047;28;20492;-65
2023/05/11 00:06:24;;;;;;;11.70;3.72;;;11.80;99.90;;;;;;5052527;28;20481;-65
2023/05/11 00:08:50;;;;;;;7.93;4.47;;;11.80;99.90;;;;;;5050946;28;20047;-65
2023/05/11 00:11:17;;;;;;;5.07;3.10;;;11.80;99.90;;;;;;5052504;28;20037;-65
2023/05/11 00:13:43;;;;;;;10.13;4.38;;;11.80;99.90;;;;;;5052196;28;20401;-65
2023/05/11 00:16:09;;;;;;;7.97;3.97;;;11.90;99.90;;;;;;5052472;28;20098;-65
2023/05/11 00:18:35;;;;;;;11.35;3.92;;;11.80;99.90;;;;;;5050834;28;20068;-65
2023/05/11 00:21:00;;;;;;;6.55;3.97;;;11.80;99.90;;;;;;5052400;28;20045;-65
2023/05/11 00:23:26;;;;;;;8.93;4.60;;;12.30;99.90;;;;;;5052338;28;20040;-65
2023/05/11 00:25:51;;;;;;;7.80;3.78;;;11.80;99.90;;;;;;5052474;28;20049;-65
2023/05/11 00:28:17;;;;;;;6.38;3.45;;;11.70;99.90;;;;;;5055751;28;20051;-65
2023/05/11 00:30:44;;;;;;;8.23;4.22;;;11.70;99.90;;;;;;5055547;28;20029;-65
2023/05/11 00:33:10;;;;;;;8.23;5.20;;;11.80;99.90;;;;;;5055866;28;20072;-65
2023/05/11 00:35:35;;;;;;;8.82;4.13;;;11.70;99.90;;;;;;5055808;28;20052;-65
2023/05/11 00:38:01;;;;;;;9.65;4.95;;;12.00;99.90;;;;;;5055455;28;20478;-65
2023/05/11 00:40:27;;;;;;;13.70;5.38;;;11.70;99.90;;;;;;5055754;28;20123;-65
2023/05/11 00:42:52;;;;;;;7.63;4.28;;;11.70;99.90;;;;;;5055680;28;20120;-65
2023/05/11 00:45:18;;;;;;;11.88;5.13;;;12.50;99.90;;;;;;5055694;28;20037;-65
2023/05/11 00:47:44;;;;;;;8.88;5.00;;;11.70;99.90;;;;;;5055518;28;20041;-65
2023/05/11 00:50:10;;;;;;;7.68;4.45;;;11.70;99.90;;;;;;5055634;28;20041;-65
2023/05/11 00:52:35;;;;;;;12.27;5.32;;;11.70;99.90;;;;;;5055532;28;20033;-65
2023/05/11 00:55:01;;;;;;;13.65;5.80;;;11.70;99.90;;;;;;5055504;28;20043;-65
2023/05/11 00:57:27;;;;;;;10.15;5.15;;;11.70;99.90;;;;;;5055186;28;20052;-65
2023/05/11 00:59:52;;;;;;;7.78;4.57;;;11.70;99.90;;;;;;5055470;28;20037;-65
2023/05/11 01:02:18;;;;;;;7.43;4.72;;;11.70;99.90;;;;;;5055347;28;20400;-65
2023/05/11 01:04:44;;;;;;;9.13;4.82;;;11.70;99.90;;;;;;5054928;28;20053;-65
2023/05/11 01:07:33;;;;;;;11.52;4.85;;;11.70;99.90;;;;;;5055176;28;20044;-65
2023/05/11 01:10:20;;;;;;;11.93;5.75;;;11.70;99.90;;;;;;5055249;28;20033;-65
2023/05/11 01:13:12;;;;;;;8.98;5.25;;;11.70;99.90;;;;;;5055141;28;20036;-65
2023/05/11 01:15:46;;;;;;;9.85;5.32;;;11.70;99.90;;;;;;5055039;28;20048;-65
2023/05/11 01:18:27;;;;;;;10.95;5.30;;;11.20;99.90;;;;;;5055117;28;20048;-65
2023/05/11 01:20:56;;;;;;;8.33;4.00;;;11.60;99.90;;;;;;5055074;28;20064;-65
2023/05/11 01:23:59;;;;;;;9.00;4.38;;;11.60;99.90;;;;;;5054728;28;20044;-65
2023/05/11 01:26:37;;;;;;;8.52;4.50;;;11.60;99.90;;;;;;5054816;28;20480;-65
2023/05/11 01:29:23;;;;;;;7.55;4.38;;;11.60;99.90;;;;;;5054861;28;20080;-65
2023/05/11 01:31:53;;;;;;;6.10;3.97;;;11.60;99.90;;;;;;5054728;28;20463;-65
2023/05/11 01:34:24;;;;;;;8.25;4.45;;;11.70;99.90;;;;;;5054764;28;20044;-65
2023/05/11 01:37:11;;;;;;;11.80;4.28;;;11.60;99.90;;;;;;5054618;28;20037;-65
2023/05/11 01:39:55;;;;;;;9.07;4.80;;;11.60;99.90;;;;;;5054419;28;20049;-65
2023/05/11 01:42:37;;;;;;;7.40;3.95;;;11.60;99.90;;;;;;5054610;28;20049;-65
2023/05/11 01:45:06;;;;;;;8.05;4.22;;;11.50;99.90;;;;;;5054288;28;20049;-65
2023/05/11 01:47:33;;;;;;;11.52;4.75;;;11.50;99.90;;;;;;5054080;28;20045;-65
2023/05/11 01:50:01;;;;;;;9.35;5.10;;;11.50;99.90;;;;;;5054121;28;20063;-65
2023/05/11 01:52:28;;;;;;;6.38;4.00;;;11.50;99.90;;;;;;5054154;28;20049;-65
2023/05/11 01:54:55;;;;;;;7.65;4.15;;;11.30;99.90;;;;;;5054366;28;20084;-66
2023/05/11 01:57:21;;;;;;;6.45;4.03;;;11.50;99.90;;;;;;5054034;28;20408;-65
2023/05/11 01:59:49;;;;;;;6.55;3.97;;;12.10;99.90;;;;;;5054233;28;20119;-65
2023/05/11 02:02:16;;;;;;;7.93;3.63;;;11.40;99.90;;;;;;5054179;28;20083;-65
2023/05/11 02:04:43;;;;;;;9.63;4.00;;;11.40;99.90;;;;;;5053658;28;20057;-65
2023/05/11 02:07:11;;;;;;;7.00;4.32;;;12.00;99.90;;;;;;5054011;28;20102;-65
2023/05/11 02:09:38;;;;;;;7.38;3.65;;;11.50;99.90;;;;;;5054052;28;20041;-65
2023/05/11 02:12:05;;;;;;;8.27;3.92;;;11.40;99.90;;;;;;5054029;28;20044;-65
2023/05/11 02:14:33;;;;;;;9.40;4.80;;;11.40;99.90;;;;;;5053892;28;20044;-65
2023/05/11 02:17:00;;;;;;;8.32;4.20;;;11.40;99.90;;;;;;5053920;28;20040;-65
2023/05/11 02:19:28;;;;;;;9.73;4.60;;;11.40;99.90;;;;;;5053847;28;20040;-65
2023/05/11 02:21:55;;;;;;;11.27;5.45;;;11.40;99.90;;;;;;5053377;28;20041;-65
2023/05/11 02:24:23;;;;;;;12.02;4.97;;;11.40;99.90;;;;;;5053772;28;20051;-65
2023/05/11 02:26:49;;;;;;;10.15;5.15;;;12.40;99.90;;;;;;5053612;28;20124;-65
2023/05/11 02:29:15;;;;;;;11.80;5.68;;;11.40;99.90;;;;;;5053370;28;20121;-65
2023/05/11 02:31:44;;;;;;;13.85;6.60;;;11.00;99.90;;;;;;5053583;28;20083;-65
2023/05/11 02:34:26;;;;;;;12.55;6.38;;;11.10;99.90;;;;;;5053290;28;20033;-65
2023/05/11 02:36:54;;;;;;;9.32;5.43;;;11.30;99.90;;;;;;5053862;28;20476;-65
2023/05/11 02:39:21;;;;;;;11.80;4.55;;;11.30;99.90;;;;;;5053199;28;20045;-65
2023/05/11 02:41:54;;;;;;;11.70;5.93;;;11.40;99.90;;;;;;5053113;28;20056;-65
2023/05/11 02:44:23;;;;;;;12.18;5.15;;;11.30;99.90;;;;;;5052176;28;20037;-65
2023/05/11 02:46:51;;;;;;;13.75;5.72;;;11.60;99.90;;;;;;5053357;28;20049;-65
2023/05/11 02:49:21;;;;;;;14.30;6.72;;;11.10;99.90;;;;;;5053005;28;20036;-65
2023/05/11 02:51:48;;;;;;;12.73;6.73;;;11.40;99.90;;;;;;5053380;28;20045;-65
2023/05/11 02:54:15;;;;;;;17.17;7.13;;;11.40;99.90;;;;;;5053357;28;20515;-65
2023/05/11 02:56:41;;;;;;;15.25;7.22;;;11.40;99.90;;;;;;5053201;28;20043;-65
2023/05/11 02:59:07;;;;;;;15.05;6.55;;;11.30;99.90;;;;;;5053145;28;20032;-65
2023/05/11 03:01:33;;;;;;;14.98;7.35;;;11.30;99.90;;;;;;5051639;28;20146;-65
2023/05/11 03:04:02;;;;;;;19.35;7.78;;;11.20;99.90;;;;;;5052927;28;20056;-65
2023/05/11 03:06:27;;;;;;;20.05;6.72;;;11.30;99.90;;;;;;5052745;28;20041;-65
2023/05/11 03:08:53;;;;;;;14.95;7.15;;;12.20;99.90;;;;;;5053086;28;20079;-65
2023/05/11 03:11:20;;;;;;;21.15;7.85;;;11.30;99.90;;;;;;5053115;28;20063;-65
2023/05/11 03:13:46;;;;;;;18.35;7.75;;;11.40;99.90;;;;;;5053007;28;20418;-65
2023/05/11 03:16:13;;;;;;;16.95;6.97;;;11.30;99.90;;;;;;5052976;28;20044;-65
2023/05/11 03:18:39;;;;;;;19.08;7.30;;;11.30;99.90;;;;;;5052859;28;20041;-65
2023/05/11 03:21:06;;;;;;;20.55;8.27;;;11.30;99.90;;;;;;5051696;28;20106;-65
2023/05/11 03:23:35;;;;;;;19.65;7.43;;;11.20;99.90;;;;;;5052643;28;20037;-65
2023/05/11 03:26:02;;;;;;;17.75;7.53;;;11.40;99.90;;;;;;5052838;28;20072;-65
2023/05/11 03:28:29;;;;;;;17.95;6.65;;;11.40;99.90;;;;;;5051305;28;20041;-65
2023/05/11 03:30:55;;;;;;;14.68;5.95;;;11.30;99.90;;;;;;5051622;28;20124;-65
2023/05/11 03:33:20;;;;;;;15.32;6.93;;;11.30;99.90;;;;;;5051663;28;20116;-65
2023/05/11 03:35:48;;;;;;;16.10;5.95;;;11.30;99.90;;;;;;5052750;28;20029;-65
2023/05/11 03:38:15;;;;;;;13.50;5.43;;;11.30;99.90;;;;;;5052778;28;20041;-65
2023/05/11 03:40:42;;;;;;;12.25;5.05;;;11.20;99.90;;;;;;5052710;28;20481;-65
2023/05/11 03:43:15;;;;;;;15.40;6.57;;;11.30;99.90;;;;;;5052677;28;20072;-65
2023/05/11 03:45:42;;;;;;;13.23;5.63;;;11.30;99.90;;;;;;5052482;28;20439;-65
2023/05/11 03:48:09;;;;;;;18.05;6.25;;;11.20;99.90;;;;;;5052653;28;20492;-65
2023/05/11 03:50:36;;;;;;;14.95;5.25;;;11.20;99.90;;;;;;5052670;28;20079;-65
2023/05/11 03:53:03;;;;;;;12.13;4.78;;;11.20;99.90;;;;;;5052669;28;20087;-65
2023/05/11 03:55:29;;;;;;;12.95;5.95;;;11.20;99.90;;;;;;5052636;28;20037;-65
2023/05/11 03:57:55;;;;;;;14.30;5.35;;;11.20;99.90;;;;;;5052584;28;20041;-65
2023/05/11 04:00:20;;;;;;;15.98;6.30;;;12.20;99.90;;;;;;5052296;28;20124;-65
2023/05/11 04:02:46;;;;;;;12.77;5.10;;;11.20;99.90;;;;;;5055593;28;20047;-65
2023/05/11 04:05:12;;;;;;;11.35;5.38;;;11.20;99.90;;;;;;5055978;28;20053;-65
2023/05/11 04:07:38;;;;;;;13.13;5.57;;;11.20;99.90;;;;;;5056235;28;20403;-65
2023/05/11 04:10:05;;;;;;;16.58;6.63;;;11.20;99.90;;;;;;5056277;28;20039;-65
2023/05/11 04:12:31;;;;;;;12.75;6.28;;;11.20;99.90;;;;;;5056289;28;20037;-65
2023/05/11 04:14:57;;;;;;;10.65;5.13;;;11.20;99.90;;;;;;5056223;28;20120;-65
2023/05/11 04:17:22;;;;;;;11.95;5.95;;;11.20;99.90;;;;;;5056023;28;20108;-65
2023/05/11 04:19:48;;;;;;;14.30;6.25;;;11.60;99.90;;;;;;5056182;28;20059;-66
2023/05/11 04:22:13;;;;;;;15.45;5.88;;;11.10;99.90;;;;;;5055744;28;20037;-67
2023/05/11 04:24:39;;;;;;;12.77;6.28;;;12.20;99.90;;;;;;5055992;28;20045;-65
2023/05/11 04:27:05;;;;;;;10.25;5.50;;;11.20;99.90;;;;;;5055667;28;20041;-65
2023/05/11 04:29:31;;;;;;;12.60;6.22;;;11.20;99.90;;;;;;5055969;28;20033;-65
2023/05/11 04:31:56;;;;;;;14.05;6.10;;;11.20;99.90;;;;;;5055924;28;20040;-66
2023/05/11 04:34:22;;;;;;;9.60;4.90;;;11.20;99.90;;;;;;5055814;28;20043;-65
2023/05/11 04:36:49;;;;;;;10.45;5.50;;;11.20;99.90;;;;;;5055871;28;20480;-66
2023/05/11 04:39:15;;;;;;;12.07;4.93;;;11.20;99.90;;;;;;5055817;28;20392;-65
2023/05/11 04:41:42;;;;;;;12.35;5.22;;;11.20;99.90;;;;;;5055744;28;20045;-65
2023/05/11 04:44:08;;;;;;;10.23;5.57;;;11.20;99.90;;;;;;5054092;28;20182;-65
2023/05/11 04:46:34;;;;;;;9.30;4.50;;;11.20;99.90;;;;;;5055287;28;20056;-65
2023/05/11 04:49:00;;;;;;;12.02;5.43;;;12.10;99.90;;;;;;5055598;28;20037;-66
2023/05/11 04:51:25;;;;;;;8.57;4.65;;;11.20;99.90;;;;;;5055571;28;20055;-65
2023/05/11 04:53:51;;;;;;;13.13;5.35;;;11.20;99.90;;;;;;5055478;28;20063;-65
2023/05/11 04:56:17;;;;;;;9.10;4.85;;;12.00;99.90;;;;;;5055142;28;20508;-65
2023/05/11 04:58:42;;;;;;;9.60;4.78;;;11.20;99.90;;;;;;5055464;28;20037;-65
2023/05/11 05:01:08;;;;;;;10.20;4.70;;;11.30;99.90;;;;;;5055395;28;20836;-66
2023/05/11 05:03:33;;;;;;;10.68;4.45;;;11.30;99.90;;;;;;5055046;28;20064;-68
2023/05/11 05:05:59;;;;;;;8.48;4.35;;;11.30;99.90;;;;;;5055221;28;20472;-66
2023/05/11 05:08:25;;;;;;;10.93;4.47;;;11.30;99.90;;;;;;5054963;28;20041;-66
2023/05/11 05:10:50;;;;;;;10.20;3.55;;;12.00;99.90;;;;;;5055114;28;20044;-66
2023/05/11 05:13:16;;;;;;;8.48;4.18;;;11.40;99.90;;;;;;5054441;28;20036;-65
2023/05/11 05:15:42;;;;;;;11.65;4.85;;;11.30;99.90;;;;;;5055053;28;20139;-65
2023/05/11 05:18:07;;;;;;;14.18;5.07;;;11.40;99.90;;;;;;5055131;28;20049;-65
2023/05/11 05:20:34;;;;;;;13.05;4.28;;;11.40;99.90;;;;;;5054657;28;20045;-66
2023/05/11 05:23:00;;;;;;;8.98;4.18;;;11.50;99.90;;;;;;5054950;28;20484;-65
2023/05/11 05:25:26;;;;;;;11.80;4.85;;;11.50;99.90;;;;;;5054959;28;20044;-66
2023/05/11 05:27:51;;;;;;;10.35;5.07;;;11.50;99.90;;;;;;5054693;28;20037;-66
2023/05/11 05:30:17;;;;;;;12.88;4.65;;;11.50;99.90;;;;;;5053653;28;20047;-67
2023/05/11 05:32:42;;;;;;;11.45;4.32;;;11.50;99.90;;;;;;5054765;28;20480;-66
2023/05/11 05:35:08;;;;;;;14.98;5.10;;;12.50;99.90;;;;;;5054778;28;20041;-65
2023/05/11 05:37:34;;;;;;;12.15;5.30;;;11.60;99.90;;;;;;5054370;28;20155;-65
2023/05/11 05:39:59;;;;;;;11.85;5.22;;;11.70;99.90;;;;;;5054641;28;20129;-68
2023/05/11 05:42:25;;;;;;;10.55;4.88;;;11.70;99.90;;;;;;5054345;28;20048;-65
2023/05/11 05:44:51;;;;;;;10.18;5.07;;;11.70;99.90;;;;;;5054496;28;20086;-65
2023/05/11 05:47:16;;;;;;;9.98;5.10;;;11.80;99.90;;;;;;5054143;28;20049;-64
2023/05/11 05:49:42;;;;;;;7.78;4.82;;;11.80;99.90;;;;;;5053150;28;20049;-67
2023/05/11 05:52:09;;;;;;;9.75;4.22;;;11.80;99.90;;;;;;5053171;28;20123;-65
2023/05/11 05:54:35;;;;;;;8.65;3.58;;;11.80;99.90;;;;;;5054005;28;20038;-65
2023/05/11 05:57:00;;;;;;;7.85;4.10;;;11.80;99.90;;;;;;5052971;28;20037;-64
2023/05/11 05:59:26;;;;;;;8.15;3.97;;;11.80;99.90;;;;;;5053988;28;20029;-65
2023/05/11 06:01:52;;;;;;;8.38;3.90;;;12.60;99.90;;;;;;5054157;28;20044;-65
2023/05/11 06:04:17;;;;;;;9.18;4.32;;;11.80;99.90;;;;;;5053831;28;20475;-64
2023/05/11 06:06:43;;;;;;;8.45;3.65;;;11.80;99.90;;;;;;5054037;28;20112;-65
2023/05/11 06:09:09;;;;;;;8.88;4.97;;;11.80;99.90;;;;;;5054092;28;20037;-65
2023/05/11 06:11:34;;;;;;;9.55;4.50;;;11.70;99.90;;;;;;5054051;28;20029;-65
2023/05/11 06:14:00;;;;;;;8.30;4.20;;;11.80;99.90;;;;;;5054005;28;20485;-65
2023/05/11 06:16:26;;;;;;;10.25;4.18;;;12.10;99.90;;;;;;5054033;28;20029;-64
2023/05/11 06:18:52;;;;;;;8.70;4.20;;;11.80;99.90;;;;;;5053608;28;20052;-65
2023/05/11 06:21:18;;;;;;;11.70;4.85;;;11.80;99.90;;;;;;5053795;28;20404;-66
2023/05/11 06:23:43;;;;;;;7.93;3.97;;;12.00;99.90;;;;;;5051819;28;20033;-64
2023/05/11 06:26:10;;;;;;;8.10;4.15;;;11.80;99.90;;;;;;5053719;28;20065;-65
2023/05/11 06:28:36;;;;;;;7.22;4.00;;;11.90;99.90;;;;;;5052319;28;20392;-65
2023/05/11 06:31:02;;;;;;;9.68;4.45;;;11.90;99.90;;;;;;5053657;28;20033;-64
2023/05/11 06:33:28;;;;;;;7.53;4.38;;;11.50;99.90;;;;;;5053658;28;20396;-65
2023/05/11 06:35:54;;;;;;;7.47;3.95;;;11.90;99.90;;;;;;5053644;28;20056;-64
2023/05/11 06:38:19;;;;;;;10.07;4.88;;;11.90;99.90;;;;;;5053258;28;20037;-64
2023/05/11 06:40:45;;;;;;;10.32;4.60;;;11.90;99.90;;;;;;5053418;28;20044;-65
2023/05/11 06:43:11;;;;;;;10.85;4.22;;;12.30;99.90;;;;;;5053499;28;20396;-65
2023/05/11 06:45:36;;;;;;;12.80;4.55;;;11.90;99.90;;;;;;5053346;28;20499;-65
2023/05/11 06:48:02;;;;;;;8.52;4.00;;;12.00;99.90;;;;;;5053269;28;20045;-65
2023/05/11 06:50:29;;;;;;;9.13;4.43;;;12.00;99.90;;;;;;5053307;28;20048;-65
2023/05/11 06:52:55;;;;;;;6.80;3.75;;;12.10;99.90;;;;;;5053343;28;20090;-65
2023/05/11 06:55:21;;;;;;;9.30;4.55;;;12.10;99.90;;;;;;5052936;28;20444;-65
2023/05/11 06:57:47;;;;;;;7.63;3.72;;;12.10;99.90;;;;;;5053457;28;20048;-65
2023/05/11 07:00:13;;;;;;;8.73;4.53;;;12.10;99.90;;;;;;5051946;28;20055;-65
2023/05/11 07:02:39;;;;;;;8.50;4.22;;;12.00;99.90;;;;;;5053132;28;20459;-65
2023/05/11 07:05:04;;;;;;;7.53;4.57;;;11.90;99.90;;;;;;5052654;28;20061;-65
2023/05/11 07:07:30;;;;;;;6.50;3.70;;;12.20;99.90;;;;;;5052910;28;20518;-65
2023/05/11 07:09:56;;;;;;;8.10;4.38;;;12.10;99.90;;;;;;5053023;28;20033;-65
2023/05/11 07:12:22;;;;;;;11.02;4.57;;;12.00;99.90;;;;;;5052959;28;20044;-65
2023/05/11 07:14:47;;;;;;;10.02;5.13;;;12.10;99.90;;;;;;5052674;28;20036;-65
2023/05/11 07:17:13;;;;;;;9.02;4.30;;;12.10;99.90;;;;;;5052966;28;20064;-65
2023/05/11 07:19:38;;;;;;;10.38;4.63;;;12.10;99.90;;;;;;5052801;28;20393;-65
2023/05/11 07:22:04;;;;;;;8.02;4.70;;;12.10;99.90;;;;;;5052476;28;20126;-65
2023/05/11 07:24:30;;;;;;;11.25;5.10;;;12.10;99.90;;;;;;5052566;28;20040;-65
2023/05/11 07:26:56;;;;;;;10.13;4.93;;;12.10;99.90;;;;;;5052672;28;20055;-64
2023/05/11 07:29:22;;;;;;;8.10;5.18;;;12.20;99.90;;;;;;5051440;28;20480;-65
2023/05/11 07:31:47;;;;;;;11.23;5.13;;;12.20;99.90;;;;;;5052634;28;20041;-66
2023/05/11 07:34:13;;;;;;;8.82;4.78;;;12.30;99.90;;;;;;5052494;28;20068;-65
2023/05/11 07:36:39;;;;;;;10.77;5.60;;;12.10;99.90;;;;;;5055773;28;20464;-65
2023/05/11 07:39:04;;;;;;;9.63;5.35;;;12.40;99.90;;;;;;5056911;28;20040;-65
2023/05/11 07:41:30;;;;;;;9.98;5.15;;;12.40;99.90;;;;;;5055540;28;20112;-65
2023/05/11 07:43:55;;;;;;;9.13;5.00;;;12.50;99.90;;;;;;5055376;28;20055;-65
2023/05/11 07:46:21;;;;;;;8.90;4.13;;;12.80;99.90;;;;;;5056522;28;20041;-65
2023/05/11 07:48:47;;;;;;;8.68;4.78;;;12.50;99.90;;;;;;5056403;28;20040;-65
2023/05/11 07:51:12;;;;;;;9.68;5.05;;;13.80;99.90;;;;;;5056744;28;20087;-65
2023/05/11 07:53:38;;;;;;;8.60;4.90;;;12.50;99.90;;;;;;5056665;28;20029;-65
2023/05/11 07:56:04;;;;;;;9.85;5.28;;;12.80;99.90;;;;;;5056705;28;20186;-63
2023/05/11 07:58:31;;;;;;;7.20;4.82;;;12.60;99.90;;;;;;5055066;28;20045;-63
2023/05/11 08:00:57;;;;;;;11.85;4.75;;;12.60;99.90;;;;;;5056422;28;20045;-64
2023/05/11 08:03:23;;;;;;;12.63;5.18;;;12.60;99.90;;;;;;5056204;28;20523;-64
2023/05/11 08:05:48;;;;;;;11.75;6.18;;;12.60;99.90;;;;;;5056357;28;20484;-63
2023/05/11 08:08:14;;;;;;;8.75;4.35;;;12.60;99.90;;;;;;5054647;28;20051;-64
2023/05/11 08:10:40;;;;;;;15.02;5.57;;;12.70;99.90;;;;;;5056246;28;20043;-64
2023/05/11 08:13:06;;;;;;;12.10;4.50;;;12.70;99.90;;;;;;5056267;28;20083;-63
2023/05/11 08:15:32;;;;;;;10.18;5.13;;;12.80;99.90;;;;;;5056045;28;20451;-64
2023/05/11 08:17:59;;;;;;;15.38;5.13;;;12.80;99.90;;;;;;5055758;28;20041;-64
2023/05/11 08:20:25;;;;;;;13.80;5.35;;;12.80;99.90;;;;;;5054833;28;20140;-63
2023/05/11 08:22:51;;;;;;;8.60;4.40;;;12.80;99.90;;;;;;5054547;28;20046;-63
2023/05/11 08:25:16;;;;;;;10.73;4.32;;;12.80;99.90;;;;;;5056117;28;20459;-64
2023/05/11 08:27:42;;;;;;;6.60;4.03;;;13.00;99.90;;;;;;5055843;28;20148;-64
2023/05/11 08:30:08;;;;;;;8.07;4.90;;;13.00;99.90;;;;;;5055963;28;20041;-64
2023/05/11 08:32:35;;;;;;;11.70;4.35;;;13.10;99.90;;;;;;5055918;28;20080;-64
2023/05/11 08:35:02;;;;;;;8.35;3.97;;;13.10;99.90;;;;;;5055952;28;20404;-64
2023/05/11 08:37:28;;;;;;;9.02;4.22;;;13.20;99.90;;;;;;5055458;28;20056;-64
2023/05/11 08:39:54;;;;;;;10.93;4.55;;;13.20;99.90;;;;;;5055847;28;20057;-64
2023/05/11 08:42:26;;;;;;;11.75;4.72;;;13.30;99.90;;;;;;5055743;28;20032;-64
2023/05/11 08:44:56;;;;;;;11.00;4.50;;;13.30;99.90;;;;;;5055273;28;20041;-64
2023/05/11 08:47:22;;;;;;;9.45;4.43;;;13.40;99.90;;;;;;5054481;28;20041;-64
2023/05/11 08:49:49;;;;;;;10.52;5.00;;;13.50;99.90;;;;;;5055161;28;20045;-63
2023/05/11 08:52:16;;;;;;;9.25;3.95;;;13.50;99.90;;;;;;5054128;28;20036;-64
2023/05/11 08:54:42;;;;;;;9.70;5.30;;;14.00;99.90;;;;;;5055252;28;20431;-63
2023/05/11 08:57:09;;;;;;;9.55;4.50;;;14.40;99.90;;;;;;5055241;28;20045;-64
2023/05/11 08:59:36;;;;;;;8.50;4.60;;;13.60;99.90;;;;;;5055163;28;20040;-64
2023/05/11 09:02:03;;;;;;;9.07;4.78;;;13.50;99.90;;;;;;5055411;28;20052;-64
2023/05/11 09:04:30;;;;;;;11.10;5.20;;;13.30;99.90;;;;;;5054949;28;20061;-64
2023/05/11 09:06:56;;;;;;;9.68;4.70;;;13.60;99.90;;;;;;5055215;28;20091;-64
2023/05/11 09:09:22;;;;;;;7.95;3.88;;;13.50;99.90;;;;;;5055036;28;20033;-64
2023/05/11 09:11:48;;;;;;;7.38;4.55;;;13.50;99.90;;;;;;5055150;28;20067;-63
2023/05/11 09:14:14;;;;;;;7.40;4.07;;;13.10;99.90;;;;;;5054862;28;20112;-64
2023/05/11 09:16:40;;;;;;;10.90;4.10;;;13.40;99.90;;;;;;5055039;28;20127;-63
2023/05/11 09:19:06;;;;;;;8.48;4.50;;;13.20;99.90;;;;;;5055024;28;20492;-63
2023/05/11 09:21:32;;;;;;;8.20;4.45;;;13.00;99.90;;;;;;5055042;28;20428;-66
2023/05/11 09:23:58;;;;;;;9.50;4.57;;;13.40;99.90;;;;;;5054962;28;20041;-63
2023/05/11 09:26:25;;;;;;;6.30;3.90;;;13.40;99.90;;;;;;5054848;28;20096;-64
2023/05/11 09:28:56;;;;;;;9.18;4.32;;;13.40;99.90;;;;;;5054820;28;20044;-63
2023/05/11 09:31:40;;;;;;;8.18;3.58;;;13.50;99.90;;;;;;5054806;28;20025;-64
2023/05/11 09:34:13;;;;;;;10.27;4.68;;;13.40;99.90;;;;;;5054691;28;20416;-64
2023/05/11 09:36:39;;;;;;;9.85;4.93;;;13.40;99.90;;;;;;5054740;28;20523;-64
2023/05/11 09:39:06;;;;;;;8.52;4.03;;;13.20;99.90;;;;;;5054698;28;20489;-64
2023/05/11 09:41:32;;;;;;;10.15;4.22;;;13.50;99.90;;;;;;5054561;28;20400;-63
2023/05/11 09:44:11;;;;;;;10.30;4.50;;;13.50;99.90;;;;;;5054488;28;20037;-64
2023/05/11 09:46:38;;;;;;;7.20;4.28;;;13.60;99.90;;;;;;5054084;28;20060;-64
2023/05/11 09:49:05;;;;;;;10.02;4.50;;;13.70;99.90;;;;;;5053193;28;20037;-63
2023/05/11 09:51:32;;;;;;;7.47;3.90;;;14.20;99.90;;;;;;5054447;28;20439;-64
2023/05/11 09:53:59;;;;;;;7.15;3.90;;;13.90;99.90;;;;;;5053183;28;20048;-64
2023/05/11 09:56:45;;;;;;;7.97;4.40;;;13.90;99.90;;;;;;5054287;28;20056;-64
2023/05/11 09:59:11;;;;;;;8.50;4.03;;;13.70;99.90;;;;;;5051559;28;20048;-64
2023/05/11 10:01:37;;;;;;;7.93;4.68;;;14.20;99.90;;;;;;5054132;28;20049;-64
2023/05/11 10:04:03;;;;;;;12.60;4.88;;;15.60;99.90;;;;;;5053908;28;20053;-64
2023/05/11 10:06:47;;;;;;;11.48;5.22;;;14.30;99.90;;;;;;5052759;28;20159;-64
2023/05/11 10:09:15;;;;;;;9.77;5.03;;;14.40;99.90;;;;;;5053939;28;20543;-64
2023/05/11 10:11:44;;;;;;;15.45;5.22;;;14.60;99.90;;;;;;5053732;28;20033;-63
2023/05/11 10:14:12;;;;;;;11.68;5.70;;;14.70;99.90;;;;;;5052806;28;20047;-64
2023/05/11 10:16:41;;;;;;;10.10;5.45;;;15.60;99.90;;;;;;5054023;28;20559;-64
2023/05/11 10:19:07;;;;;;;16.98;5.95;;;14.90;99.90;;;;;;5052499;28;20052;-64
2023/05/11 10:21:34;;;;;;;12.55;5.72;;;15.80;99.90;;;;;;5053662;28;20080;-64
2023/05/11 10:24:02;;;;;;;9.65;5.28;;;15.00;99.90;;;;;;5053849;28;20044;-64
2023/05/11 10:26:29;;;;;;;12.80;6.07;;;15.10;99.90;;;;;;5053735;28;20040;-64
2023/05/11 10:28:55;;;;;;;11.30;5.93;;;15.10;99.90;;;;;;5052239;28;20068;-64
2023/05/11 10:31:23;;;;;;;10.18;5.22;;;15.10;99.90;;;;;;5053602;28;20090;-63
2023/05/11 10:33:50;;;;;;;16.05;5.70;;;15.10;99.90;;;;;;5053376;28;20063;-63
2023/05/11 10:36:17;;;;;;;9.50;4.60;;;15.20;99.90;;;;;;5053518;28;20083;-63
2023/05/11 10:38:43;;;;;;;12.25;5.63;;;15.30;99.90;;;;;;5053518;28;20037;-63
2023/05/11 10:41:33;;;;;;;10.13;5.45;;;15.40;99.90;;;;;;5053129;28;20116;-64
2023/05/11 10:44:47;;;;;;;7.97;4.43;;;15.40;99.90;;;;;;5053276;28;20033;-63
2023/05/11 10:47:42;;;;;;;8.75;4.57;;;15.60;99.90;;;;;;4991747;28;20089;-63
2023/05/11 10:50:07;;;;;;;9.05;4.55;;;16.00;99.90;;;;;;4979166;28;20050;-63
2023/05/11 10:52:51;;;;;;;12.63;5.05;;;15.90;99.90;;;;;;5036850;28;20059;-63
2023/05/11 10:55:35;;;;;;;9.65;5.00;;;15.50;99.90;;;;;;5053292;28;20153;-63
2023/05/11 10:58:21;;;;;;;11.05;4.35;;;15.50;99.90;;;;;;5052956;28;20044;-69
2023/05/11 11:01:21;;;;;;;10.05;4.85;;;15.60;99.90;;;;;;5053072;28;20089;-63
2023/05/11 11:04:03;;;;;;;12.98;5.07;;;15.60;99.90;;;;;;5052926;28;20053;-63
2023/05/11 11:06:30;;;;;;;10.43;5.60;;;15.90;99.90;;;;;;5053010;28;20048;-64
2023/05/11 11:08:57;;;;;;;9.88;5.10;;;16.40;99.90;;;;;;5051620;28;20044;-64
2023/05/11 11:11:33;;;;;;;9.68;4.93;;;16.00;99.90;;;;;;5052747;28;20399;-63
2023/05/11 11:14:01;;;;;;;13.30;5.18;;;15.60;99.90;;;;;;5051524;28;20037;-63
2023/05/11 11:16:27;;;;;;;7.97;4.35;;;15.90;99.90;;;;;;5053068;28;20049;-64
2023/05/11 11:19:27;;;;;;;7.68;4.50;;;15.70;99.90;;;;;;5051873;28;20508;-63
2023/05/11 11:21:53;;;;;;;6.03;3.00;;;15.80;99.90;;;;;;5053048;28;20409;-63
2023/05/11 11:24:37;;;;;;;3.53;2.40;;;15.80;99.90;;;;;;5052971;28;20040;-63
2023/05/11 11:27:04;;;;;;;4.30;2.33;;;16.50;99.90;;;;;;5052780;28;20044;-64
2023/05/11 11:29:30;;;;;;;4.88;2.60;;;15.90;99.90;;;;;;5052860;28;20040;-63
2023/05/11 11:32:18;;;;;;;3.60;2.03;;;15.90;99.90;;;;;;5052754;28;20060;-63
2023/05/11 11:34:45;;;;;;;4.63;2.22;;;16.00;99.90;;;;;;5052371;28;20043;-64
2023/05/11 11:37:12;;;;;;;4.70;1.98;;;15.90;99.90;;;;;;5052813;28;20037;-63
2023/05/11 11:39:40;;;;;;;3.75;1.98;;;16.10;99.90;;;;;;5052440;28;20535;-63
2023/05/11 11:42:14;;;;;;;4.03;2.28;;;16.70;99.90;;;;;;5052730;28;20037;-64
2023/05/11 11:44:41;;;;;;;4.30;2.13;;;16.30;99.90;;;;;;5051213;28;20049;-64
2023/05/11 11:47:20;;;;;;;5.40;2.15;;;16.30;99.90;;;;;;5052664;28;20441;-64
2023/05/11 11:49:52;;;;;;;4.72;2.25;;;16.30;99.90;;;;;;5051357;28;20072;-63
2023/05/11 11:52:27;;;;;;;4.72;2.42;;;16.30;99.90;;;;;;5052661;28;20497;-64
2023/05/11 11:54:53;;;;;;;3.45;2.30;;;16.70;99.90;;;;;;5052195;28;20091;-63
2023/05/11 11:57:33;;;;;;;5.20;2.65;;;17.20;99.90;;;;;;5052209;28;20496;-64
2023/05/11 12:00:00;;;;;;;3.17;2.20;;;16.50;99.90;;;;;;5052576;28;20128;-64
2023/05/11 12:02:26;;;;;;;4.40;2.35;;;16.60;99.90;;;;;;5051183;28;20040;-64
2023/05/11 12:04:59;;;;;;;4.70;2.75;;;16.60;99.90;;;;;;5052111;28;20484;-65
2023/05/11 12:07:26;;;;;;;5.90;2.55;;;16.70;99.90;;;;;;5052515;28;20052;-65
2023/05/11 12:09:52;;;;;;;5.50;2.25;;;16.70;99.90;;;;;;5052285;28;20033;-64
2023/05/11 12:12:19;;;;;;;4.57;2.35;;;16.70;99.90;;;;;;5052583;28;20052;-64
2023/05/11 12:14:47;;;;;;;4.05;2.42;;;17.30;99.90;;;;;;5052544;28;20182;-64
2023/05/11 12:17:15;;;;;;;4.97;2.20;;;16.70;99.90;;;;;;5052571;28;20037;-65
2023/05/11 12:19:44;;;;;;;5.72;1.77;;;16.80;99.90;;;;;;5052215;28;20040;-64
2023/05/11 12:22:13;;;;;;;4.93;2.45;;;16.80;99.90;;;;;;5052834;28;20041;-65
2023/05/11 12:24:39;;;;;;;3.38;1.73;;;16.80;99.90;;;;;;5056179;28;20540;-64
2023/05/11 12:27:05;;;;;;;3.58;1.90;;;17.00;99.90;;;;;;5056053;28;20072;-64
2023/05/11 12:29:31;;;;;;;3.50;1.85;;;16.90;99.90;;;;;;5055692;28;20079;-64
2023/05/11 12:31:57;;;;;;;3.10;1.92;;;17.00;99.90;;;;;;5056035;28;20055;-64
2023/05/11 12:34:23;;;;;;;4.93;1.48;;;16.90;99.90;;;;;;5056009;28;20036;-65
2023/05/11 12:36:51;;;;;;;2.10;1.20;;;17.20;99.90;;;;;;5055793;28;20120;-64
2023/05/11 12:39:25;;;;;;;4.40;1.45;;;16.90;99.90;;;;;;5055877;28;20041;-64
2023/05/11 12:41:53;;;;;;;3.05;1.38;;;16.80;99.90;;;;;;5054243;28;20076;-64
2023/05/11 12:44:21;;;;;;;3.75;1.80;;;17.70;99.90;;;;;;5055794;28;20037;-65
2023/05/11 12:46:47;;;;;;;2.15;1.30;;;17.00;99.90;;;;;;5055640;28;20048;-64
2023/05/11 12:49:22;;;;;;;2.40;1.27;;;17.00;99.90;;;;;;5055697;28;20037;-65